sensor_id;sensor_type;location;lat;lon;timestamp;P1;durP1;ratioP1;P2;durP2;ratioP2
36283;SDS011;56085;48.910;9.478;2023-09-19T00:01:45;1.70;;;0.77;;
36283;SDS011;56085;48.910;9.478;2023-09-19T00:04:11;1.33;;;0.73;;
36283;SDS011;56085;48.910;9.478;2023-09-19T00:06:38;2.30;;;0.65;;
36283;SDS011;56085;48.910;9.478;2023-09-19T00:09:03;0.95;;;0.50;;
36283;SDS011;56085;48.910;9.478;2023-09-19T00:11:29;1.25;;;0.70;;
36283;SDS011;56085;48.910;9.478;2023-09-19T00:13:54;1.58;;;0.80;;
36283;SDS011;56085;48.910;9.478;2023-09-19T00:16:20;1.88;;;0.65;;
36283;SDS011;56085;48.910;9.478;2023-09-19T00:18:45;1.73;;;0.60;;
36283;SDS011;56085;48.910;9.478;2023-09-19T00:21:11;1.33;;;0.60;;
36283;SDS011;56085;48.910;9.478;2023-09-19T00:23:36;2.25;;;0.65;;
36283;SDS011;56085;48.910;9.478;2023-09-19T00:26:02;2.25;;;0.88;;
36283;SDS011;56085;48.910;9.478;2023-09-19T00:28:28;2.58;;;0.60;;
36283;SDS011;56085;48.910;9.478;2023-09-19T00:30:56;2.30;;;0.80;;
36283;SDS011;56085;48.910;9.478;2023-09-19T00:33:22;1.85;;;0.70;;
36283;SDS011;56085;48.910;9.478;2023-09-19T00:35:53;1.15;;;0.70;;
36283;SDS011;56085;48.910;9.478;2023-09-19T00:38:19;3.28;;;0.50;;
36283;SDS011;56085;48.910;9.478;2023-09-19T00:40:47;1.63;;;0.82;;
36283;SDS011;56085;48.910;9.478;2023-09-19T00:43:14;1.38;;;0.70;;
36283;SDS011;56085;48.910;9.478;2023-09-19T00:45:41;3.13;;;0.82;;
36283;SDS011;56085;48.910;9.478;2023-09-19T00:48:09;2.20;;;0.77;;
36283;SDS011;56085;48.910;9.478;2023-09-19T00:50:34;4.55;;;0.90;;
36283;SDS011;56085;48.910;9.478;2023-09-19T00:53:01;2.78;;;0.90;;
36283;SDS011;56085;48.910;9.478;2023-09-19T00:55:34;0.90;;;0.57;;
36283;SDS011;56085;48.910;9.478;2023-09-19T00:58:02;1.98;;;0.95;;
36283;SDS011;56085;48.910;9.478;2023-09-19T01:00:27;2.10;;;0.90;;
36283;SDS011;56085;48.910;9.478;2023-09-19T01:02:53;2.83;;;0.70;;
36283;SDS011;56085;48.910;9.478;2023-09-19T01:05:19;1.80;;;0.80;;
36283;SDS011;56085;48.910;9.478;2023-09-19T01:07:44;1.55;;;0.63;;
36283;SDS011;56085;48.910;9.478;2023-09-19T01:10:11;2.35;;;0.60;;
36283;SDS011;56085;48.910;9.478;2023-09-19T01:20:55;1.08;;;0.65;;
36283;SDS011;56085;48.910;9.478;2023-09-19T01:26:18;0.88;;;0.43;;
36283;SDS011;56085;48.910;9.478;2023-09-19T01:28:53;1.83;;;0.50;;
36283;SDS011;56085;48.910;9.478;2023-09-19T01:31:28;1.15;;;0.85;;
36283;SDS011;56085;48.910;9.478;2023-09-19T01:33:57;1.92;;;0.60;;
36283;SDS011;56085;48.910;9.478;2023-09-19T01:36:30;2.42;;;0.65;;
36283;SDS011;56085;48.910;9.478;2023-09-19T01:39:00;3.42;;;0.60;;
36283;SDS011;56085;48.910;9.478;2023-09-19T01:41:41;1.17;;;0.73;;
36283;SDS011;56085;48.910;9.478;2023-09-19T01:44:25;1.75;;;0.60;;
36283;SDS011;56085;48.910;9.478;2023-09-19T01:46:58;1.23;;;0.60;;
36283;SDS011;56085;48.910;9.478;2023-09-19T01:49:33;2.78;;;1.15;;
36283;SDS011;56085;48.910;9.478;2023-09-19T01:52:11;0.90;;;0.65;;
36283;SDS011;56085;48.910;9.478;2023-09-19T01:54:45;2.50;;;0.70;;
36283;SDS011;56085;48.910;9.478;2023-09-19T01:57:17;4.95;;;1.30;;
36283;SDS011;56085;48.910;9.478;2023-09-19T01:59:57;2.00;;;0.70;;
36283;SDS011;56085;48.910;9.478;2023-09-19T02:02:31;0.75;;;0.55;;
36283;SDS011;56085;48.910;9.478;2023-09-19T02:04:59;3.03;;;0.75;;
36283;SDS011;56085;48.910;9.478;2023-09-19T02:07:24;1.02;;;0.63;;
36283;SDS011;56085;48.910;9.478;2023-09-19T02:09:50;0.68;;;0.45;;
36283;SDS011;56085;48.910;9.478;2023-09-19T02:12:15;0.85;;;0.52;;
36283;SDS011;56085;48.910;9.478;2023-09-19T02:14:40;1.35;;;0.88;;
36283;SDS011;56085;48.910;9.478;2023-09-19T02:17:06;2.97;;;0.65;;
36283;SDS011;56085;48.910;9.478;2023-09-19T02:19:32;1.33;;;0.68;;
36283;SDS011;56085;48.910;9.478;2023-09-19T02:21:58;1.90;;;0.70;;
36283;SDS011;56085;48.910;9.478;2023-09-19T02:24:24;1.55;;;0.50;;
36283;SDS011;56085;48.910;9.478;2023-09-19T02:26:51;3.03;;;0.50;;
36283;SDS011;56085;48.910;9.478;2023-09-19T02:29:17;1.75;;;0.70;;
36283;SDS011;56085;48.910;9.478;2023-09-19T02:31:42;1.33;;;0.73;;
36283;SDS011;56085;48.910;9.478;2023-09-19T02:34:07;1.77;;;0.82;;
36283;SDS011;56085;48.910;9.478;2023-09-19T02:36:33;1.42;;;0.57;;
36283;SDS011;56085;48.910;9.478;2023-09-19T02:38:59;0.63;;;0.40;;
36283;SDS011;56085;48.910;9.478;2023-09-19T02:41:24;1.48;;;0.50;;
36283;SDS011;56085;48.910;9.478;2023-09-19T02:43:49;2.28;;;0.63;;
36283;SDS011;56085;48.910;9.478;2023-09-19T02:46:14;2.63;;;1.00;;
36283;SDS011;56085;48.910;9.478;2023-09-19T02:48:42;2.70;;;1.00;;
36283;SDS011;56085;48.910;9.478;2023-09-19T02:51:07;0.55;;;0.40;;
36283;SDS011;56085;48.910;9.478;2023-09-19T02:53:32;3.72;;;0.98;;
36283;SDS011;56085;48.910;9.478;2023-09-19T02:55:58;2.97;;;0.73;;
36283;SDS011;56085;48.910;9.478;2023-09-19T02:58:23;1.67;;;0.63;;
36283;SDS011;56085;48.910;9.478;2023-09-19T03:00:50;2.38;;;0.50;;
36283;SDS011;56085;48.910;9.478;2023-09-19T03:03:16;0.90;;;0.65;;
36283;SDS011;56085;48.910;9.478;2023-09-19T03:05:42;2.47;;;0.60;;
36283;SDS011;56085;48.910;9.478;2023-09-19T03:08:12;1.80;;;0.57;;
36283;SDS011;56085;48.910;9.478;2023-09-19T03:10:39;0.60;;;0.50;;
36283;SDS011;56085;48.910;9.478;2023-09-19T03:13:05;1.85;;;0.52;;
36283;SDS011;56085;48.910;9.478;2023-09-19T03:15:34;1.50;;;0.63;;
36283;SDS011;56085;48.910;9.478;2023-09-19T03:18:02;2.63;;;1.00;;
36283;SDS011;56085;48.910;9.478;2023-09-19T03:20:27;5.05;;;1.30;;
36283;SDS011;56085;48.910;9.478;2023-09-19T03:22:53;3.40;;;1.90;;
36283;SDS011;56085;48.910;9.478;2023-09-19T03:25:18;6.90;;;3.00;;
36283;SDS011;56085;48.910;9.478;2023-09-19T03:27:44;6.13;;;2.22;;
36283;SDS011;56085;48.910;9.478;2023-09-19T03:30:09;3.03;;;1.40;;
36283;SDS011;56085;48.910;9.478;2023-09-19T03:32:43;2.35;;;1.13;;
36283;SDS011;56085;48.910;9.478;2023-09-19T03:35:12;2.72;;;0.80;;
36283;SDS011;56085;48.910;9.478;2023-09-19T03:37:39;2.42;;;1.05;;
36283;SDS011;56085;48.910;9.478;2023-09-19T03:40:06;1.42;;;0.63;;
36283;SDS011;56085;48.910;9.478;2023-09-19T03:42:32;1.85;;;0.57;;
36283;SDS011;56085;48.910;9.478;2023-09-19T03:44:58;1.55;;;0.65;;
36283;SDS011;56085;48.910;9.478;2023-09-19T03:47:24;2.10;;;0.70;;
36283;SDS011;56085;48.910;9.478;2023-09-19T03:49:50;1.02;;;0.40;;
36283;SDS011;56085;48.910;9.478;2023-09-19T03:52:15;1.17;;;0.68;;
36283;SDS011;56085;48.910;9.478;2023-09-19T03:54:41;1.58;;;0.47;;
36283;SDS011;56085;48.910;9.478;2023-09-19T03:57:06;1.50;;;0.70;;
36283;SDS011;56085;48.910;9.478;2023-09-19T03:59:32;1.98;;;0.90;;
36283;SDS011;56085;48.910;9.478;2023-09-19T04:01:57;0.93;;;0.60;;
36283;SDS011;56085;48.910;9.478;2023-09-19T04:04:23;0.77;;;0.57;;
36283;SDS011;56085;48.910;9.478;2023-09-19T04:06:50;1.33;;;0.75;;
36283;SDS011;56085;48.910;9.478;2023-09-19T04:09:16;1.35;;;0.70;;
36283;SDS011;56085;48.910;9.478;2023-09-19T04:11:41;0.90;;;0.60;;
36283;SDS011;56085;48.910;9.478;2023-09-19T04:14:06;1.55;;;0.70;;
36283;SDS011;56085;48.910;9.478;2023-09-19T04:16:31;1.60;;;0.73;;
36283;SDS011;56085;48.910;9.478;2023-09-19T04:18:57;1.58;;;0.70;;
36283;SDS011;56085;48.910;9.478;2023-09-19T04:21:22;3.35;;;1.02;;
36283;SDS011;56085;48.910;9.478;2023-09-19T04:23:47;3.63;;;1.20;;
36283;SDS011;56085;48.910;9.478;2023-09-19T04:26:12;1.85;;;0.57;;
36283;SDS011;56085;48.910;9.478;2023-09-19T04:28:38;2.08;;;0.82;;
36283;SDS011;56085;48.910;9.478;2023-09-19T04:31:03;1.63;;;0.70;;
36283;SDS011;56085;48.910;9.478;2023-09-19T04:33:29;1.52;;;0.68;;
36283;SDS011;56085;48.910;9.478;2023-09-19T04:35:54;3.05;;;1.05;;
36283;SDS011;56085;48.910;9.478;2023-09-19T04:38:21;2.28;;;1.00;;
36283;SDS011;56085;48.910;9.478;2023-09-19T04:40:47;2.08;;;0.95;;
36283;SDS011;56085;48.910;9.478;2023-09-19T04:43:13;1.20;;;0.70;;
36283;SDS011;56085;48.910;9.478;2023-09-19T04:45:39;5.50;;;1.17;;
36283;SDS011;56085;48.910;9.478;2023-09-19T04:48:05;1.60;;;0.80;;
36283;SDS011;56085;48.910;9.478;2023-09-19T04:50:33;4.72;;;1.52;;
36283;SDS011;56085;48.910;9.478;2023-09-19T04:52:59;4.18;;;1.30;;
36283;SDS011;56085;48.910;9.478;2023-09-19T04:55:26;2.60;;;1.00;;
36283;SDS011;56085;48.910;9.478;2023-09-19T04:57:51;1.75;;;0.80;;
36283;SDS011;56085;48.910;9.478;2023-09-19T05:00:18;3.38;;;1.10;;
36283;SDS011;56085;48.910;9.478;2023-09-19T05:02:51;1.98;;;0.98;;
36283;SDS011;56085;48.910;9.478;2023-09-19T05:05:17;2.38;;;0.90;;
36283;SDS011;56085;48.910;9.478;2023-09-19T05:07:44;1.10;;;0.70;;
36283;SDS011;56085;48.910;9.478;2023-09-19T05:10:10;3.30;;;0.90;;
36283;SDS011;56085;48.910;9.478;2023-09-19T05:12:36;1.60;;;0.82;;
36283;SDS011;56085;48.910;9.478;2023-09-19T05:15:02;1.75;;;0.82;;
36283;SDS011;56085;48.910;9.478;2023-09-19T05:17:30;2.10;;;0.70;;
36283;SDS011;56085;48.910;9.478;2023-09-19T05:19:56;1.00;;;0.90;;
36283;SDS011;56085;48.910;9.478;2023-09-19T05:22:22;1.83;;;0.80;;
36283;SDS011;56085;48.910;9.478;2023-09-19T05:24:49;3.75;;;1.35;;
36283;SDS011;56085;48.910;9.478;2023-09-19T05:27:16;1.48;;;0.70;;
36283;SDS011;56085;48.910;9.478;2023-09-19T05:29:42;2.35;;;0.93;;
36283;SDS011;56085;48.910;9.478;2023-09-19T05:32:08;2.65;;;0.90;;
36283;SDS011;56085;48.910;9.478;2023-09-19T05:34:35;3.28;;;1.17;;
36283;SDS011;56085;48.910;9.478;2023-09-19T05:37:00;2.97;;;1.50;;
36283;SDS011;56085;48.910;9.478;2023-09-19T05:39:25;2.83;;;1.27;;
36283;SDS011;56085;48.910;9.478;2023-09-19T05:41:50;1.60;;;0.95;;
36283;SDS011;56085;48.910;9.478;2023-09-19T05:44:16;3.50;;;1.27;;
36283;SDS011;56085;48.910;9.478;2023-09-19T05:46:41;6.70;;;4.13;;
36283;SDS011;56085;48.910;9.478;2023-09-19T05:49:06;9.18;;;4.47;;
36283;SDS011;56085;48.910;9.478;2023-09-19T05:51:31;6.10;;;3.30;;
36283;SDS011;56085;48.910;9.478;2023-09-19T05:53:57;3.53;;;2.13;;
36283;SDS011;56085;48.910;9.478;2023-09-19T05:56:26;2.97;;;1.60;;
36283;SDS011;56085;48.910;9.478;2023-09-19T05:58:52;4.75;;;1.92;;
36283;SDS011;56085;48.910;9.478;2023-09-19T06:01:18;5.50;;;1.75;;
36283;SDS011;56085;48.910;9.478;2023-09-19T06:03:44;2.15;;;1.15;;
36283;SDS011;56085;48.910;9.478;2023-09-19T06:06:09;1.98;;;1.15;;
36283;SDS011;56085;48.910;9.478;2023-09-19T06:08:34;1.58;;;0.88;;
36283;SDS011;56085;48.910;9.478;2023-09-19T06:11:00;2.58;;;1.25;;
36283;SDS011;56085;48.910;9.478;2023-09-19T06:13:27;1.10;;;0.80;;
36283;SDS011;56085;48.910;9.478;2023-09-19T06:15:54;2.63;;;1.08;;
36283;SDS011;56085;48.910;9.478;2023-09-19T06:18:21;1.15;;;0.82;;
36283;SDS011;56085;48.910;9.478;2023-09-19T06:20:51;2.85;;;1.15;;
36283;SDS011;56085;48.910;9.478;2023-09-19T06:23:17;2.45;;;1.20;;
36283;SDS011;56085;48.910;9.478;2023-09-19T06:25:43;3.30;;;1.30;;
36283;SDS011;56085;48.910;9.478;2023-09-19T06:28:09;2.47;;;1.20;;
36283;SDS011;56085;48.910;9.478;2023-09-19T06:30:37;5.07;;;1.25;;
36283;SDS011;56085;48.910;9.478;2023-09-19T06:33:05;2.72;;;1.10;;
36283;SDS011;56085;48.910;9.478;2023-09-19T06:35:32;1.20;;;0.73;;
36283;SDS011;56085;48.910;9.478;2023-09-19T06:37:58;1.90;;;1.05;;
36283;SDS011;56085;48.910;9.478;2023-09-19T06:40:24;2.90;;;1.30;;
36283;SDS011;56085;48.910;9.478;2023-09-19T06:42:52;2.47;;;1.20;;
36283;SDS011;56085;48.910;9.478;2023-09-19T06:45:18;2.70;;;0.95;;
36283;SDS011;56085;48.910;9.478;2023-09-19T06:47:45;3.13;;;1.20;;
36283;SDS011;56085;48.910;9.478;2023-09-19T06:50:10;2.85;;;1.10;;
36283;SDS011;56085;48.910;9.478;2023-09-19T06:52:42;2.90;;;1.20;;
36283;SDS011;56085;48.910;9.478;2023-09-19T06:55:07;2.22;;;1.20;;
36283;SDS011;56085;48.910;9.478;2023-09-19T06:57:36;3.45;;;1.30;;
36283;SDS011;56085;48.910;9.478;2023-09-19T07:00:01;4.07;;;1.30;;
36283;SDS011;56085;48.910;9.478;2023-09-19T07:02:27;3.55;;;1.40;;
36283;SDS011;56085;48.910;9.478;2023-09-19T07:04:52;3.70;;;1.70;;
36283;SDS011;56085;48.910;9.478;2023-09-19T07:07:18;3.70;;;1.30;;
36283;SDS011;56085;48.910;9.478;2023-09-19T07:09:43;2.97;;;1.42;;
36283;SDS011;56085;48.910;9.478;2023-09-19T07:12:08;3.25;;;1.50;;
36283;SDS011;56085;48.910;9.478;2023-09-19T07:14:34;3.17;;;1.55;;
36283;SDS011;56085;48.910;9.478;2023-09-19T07:16:59;2.85;;;1.33;;
36283;SDS011;56085;48.910;9.478;2023-09-19T07:19:26;2.55;;;1.60;;
36283;SDS011;56085;48.910;9.478;2023-09-19T07:21:53;3.30;;;1.33;;
36283;SDS011;56085;48.910;9.478;2023-09-19T07:24:19;4.32;;;1.90;;
36283;SDS011;56085;48.910;9.478;2023-09-19T07:26:47;2.13;;;1.40;;
36283;SDS011;56085;48.910;9.478;2023-09-19T07:29:12;3.35;;;1.50;;
36283;SDS011;56085;48.910;9.478;2023-09-19T07:31:37;3.22;;;1.48;;
36283;SDS011;56085;48.910;9.478;2023-09-19T07:34:03;3.60;;;1.65;;
36283;SDS011;56085;48.910;9.478;2023-09-19T07:36:29;4.40;;;1.48;;
36283;SDS011;56085;48.910;9.478;2023-09-19T07:38:54;2.40;;;1.33;;
36283;SDS011;56085;48.910;9.478;2023-09-19T07:41:22;5.65;;;1.58;;
36283;SDS011;56085;48.910;9.478;2023-09-19T07:43:48;3.40;;;1.80;;
36283;SDS011;56085;48.910;9.478;2023-09-19T07:46:13;12.80;;;2.40;;
36283;SDS011;56085;48.910;9.478;2023-09-19T07:48:39;4.25;;;1.30;;
36283;SDS011;56085;48.910;9.478;2023-09-19T07:51:06;2.88;;;1.50;;
36283;SDS011;56085;48.910;9.478;2023-09-19T07:53:33;5.00;;;1.23;;
36283;SDS011;56085;48.910;9.478;2023-09-19T07:56:06;5.97;;;1.88;;
36283;SDS011;56085;48.910;9.478;2023-09-19T07:58:33;8.20;;;2.10;;
36283;SDS011;56085;48.910;9.478;2023-09-19T08:01:08;3.45;;;1.80;;
36283;SDS011;56085;48.910;9.478;2023-09-19T08:03:35;8.98;;;1.98;;
36283;SDS011;56085;48.910;9.478;2023-09-19T08:06:05;3.33;;;1.33;;
36283;SDS011;56085;48.910;9.478;2023-09-19T08:08:34;5.07;;;1.88;;
36283;SDS011;56085;48.910;9.478;2023-09-19T08:11:02;5.00;;;1.58;;
36283;SDS011;56085;48.910;9.478;2023-09-19T08:13:38;3.03;;;1.60;;
36283;SDS011;56085;48.910;9.478;2023-09-19T08:16:08;5.03;;;1.50;;
36283;SDS011;56085;48.910;9.478;2023-09-19T08:18:33;3.35;;;1.58;;
36283;SDS011;56085;48.910;9.478;2023-09-19T08:20:59;2.53;;;1.40;;
36283;SDS011;56085;48.910;9.478;2023-09-19T08:23:25;2.85;;;1.17;;
36283;SDS011;56085;48.910;9.478;2023-09-19T08:25:55;3.42;;;1.33;;
36283;SDS011;56085;48.910;9.478;2023-09-19T08:28:21;5.25;;;1.42;;
36283;SDS011;56085;48.910;9.478;2023-09-19T08:30:49;4.00;;;1.55;;
36283;SDS011;56085;48.910;9.478;2023-09-19T08:33:15;2.17;;;1.08;;
36283;SDS011;56085;48.910;9.478;2023-09-19T08:35:41;4.93;;;1.35;;
36283;SDS011;56085;48.910;9.478;2023-09-19T08:38:08;3.22;;;1.45;;
36283;SDS011;56085;48.910;9.478;2023-09-19T08:40:37;6.38;;;1.67;;
36283;SDS011;56085;48.910;9.478;2023-09-19T08:43:05;5.63;;;1.35;;
36283;SDS011;56085;48.910;9.478;2023-09-19T08:45:32;3.38;;;1.40;;
36283;SDS011;56085;48.910;9.478;2023-09-19T08:48:03;3.70;;;1.00;;
36283;SDS011;56085;48.910;9.478;2023-09-19T08:50:31;3.50;;;1.08;;
36283;SDS011;56085;48.910;9.478;2023-09-19T08:53:01;3.67;;;1.20;;
36283;SDS011;56085;48.910;9.478;2023-09-19T08:55:36;4.50;;;1.35;;
36283;SDS011;56085;48.910;9.478;2023-09-19T08:58:03;2.25;;;1.27;;
36283;SDS011;56085;48.910;9.478;2023-09-19T09:00:31;2.17;;;0.88;;
36283;SDS011;56085;48.910;9.478;2023-09-19T09:02:58;2.97;;;1.17;;
36283;SDS011;56085;48.910;9.478;2023-09-19T09:05:25;1.85;;;0.90;;
36283;SDS011;56085;48.910;9.478;2023-09-19T09:07:52;1.42;;;0.68;;
36283;SDS011;56085;48.910;9.478;2023-09-19T09:10:21;2.30;;;1.20;;
36283;SDS011;56085;48.910;9.478;2023-09-19T09:12:48;2.03;;;0.90;;
36283;SDS011;56085;48.910;9.478;2023-09-19T09:15:17;1.23;;;0.77;;
36283;SDS011;56085;48.910;9.478;2023-09-19T09:17:46;3.30;;;0.93;;
36283;SDS011;56085;48.910;9.478;2023-09-19T09:20:13;2.10;;;0.98;;
36283;SDS011;56085;48.910;9.478;2023-09-19T09:22:38;1.85;;;0.82;;
36283;SDS011;56085;48.910;9.478;2023-09-19T09:25:09;2.70;;;0.95;;
36283;SDS011;56085;48.910;9.478;2023-09-19T09:27:34;2.13;;;1.00;;
36283;SDS011;56085;48.910;9.478;2023-09-19T09:29:59;2.33;;;1.23;;
36283;SDS011;56085;48.910;9.478;2023-09-19T09:32:29;4.63;;;0.90;;
36283;SDS011;56085;48.910;9.478;2023-09-19T09:34:59;2.83;;;0.80;;
36283;SDS011;56085;48.910;9.478;2023-09-19T09:37:26;2.25;;;1.10;;
36283;SDS011;56085;48.910;9.478;2023-09-19T09:39:57;1.83;;;1.00;;
36283;SDS011;56085;48.910;9.478;2023-09-19T09:42:33;3.63;;;1.17;;
36283;SDS011;56085;48.910;9.478;2023-09-19T09:45:18;3.42;;;1.40;;
36283;SDS011;56085;48.910;9.478;2023-09-19T09:48:02;2.72;;;1.60;;
36283;SDS011;56085;48.910;9.478;2023-09-19T09:52:55;2.45;;;1.10;;
36283;SDS011;56085;48.910;9.478;2023-09-19T09:55:36;1.40;;;0.80;;
36283;SDS011;56085;48.910;9.478;2023-09-19T09:58:22;2.67;;;1.00;;
36283;SDS011;56085;48.910;9.478;2023-09-19T10:00:57;1.40;;;0.73;;
36283;SDS011;56085;48.910;9.478;2023-09-19T10:03:34;3.10;;;0.97;;
36283;SDS011;56085;48.910;9.478;2023-09-19T10:06:05;2.72;;;1.23;;
36283;SDS011;56085;48.910;9.478;2023-09-19T10:11:29;1.80;;;0.80;;
36283;SDS011;56085;48.910;9.478;2023-09-19T10:13:55;1.67;;;0.98;;
36283;SDS011;56085;48.910;9.478;2023-09-19T10:16:21;1.17;;;0.70;;
36283;SDS011;56085;48.910;9.478;2023-09-19T10:18:49;2.17;;;1.13;;
36283;SDS011;56085;48.910;9.478;2023-09-19T10:21:19;2.85;;;1.10;;
36283;SDS011;56085;48.910;9.478;2023-09-19T10:23:47;1.17;;;0.70;;
36283;SDS011;56085;48.910;9.478;2023-09-19T10:26:16;2.53;;;1.30;;
36283;SDS011;56085;48.910;9.478;2023-09-19T10:28:42;1.05;;;0.68;;
36283;SDS011;56085;48.910;9.478;2023-09-19T10:31:07;6.57;;;1.20;;
36283;SDS011;56085;48.910;9.478;2023-09-19T10:33:35;3.67;;;1.02;;
36283;SDS011;56085;48.910;9.478;2023-09-19T10:36:02;1.90;;;0.93;;
36283;SDS011;56085;48.910;9.478;2023-09-19T10:38:30;2.15;;;1.17;;
36283;SDS011;56085;48.910;9.478;2023-09-19T10:40:58;4.38;;;1.48;;
36283;SDS011;56085;48.910;9.478;2023-09-19T10:43:25;2.28;;;1.20;;
36283;SDS011;56085;48.910;9.478;2023-09-19T10:45:55;3.88;;;1.48;;
36283;SDS011;56085;48.910;9.478;2023-09-19T10:48:25;3.50;;;1.10;;
36283;SDS011;56085;48.910;9.478;2023-09-19T10:53:25;1.55;;;0.88;;
36283;SDS011;56085;48.910;9.478;2023-09-19T10:55:53;1.85;;;1.10;;
36283;SDS011;56085;48.910;9.478;2023-09-19T10:58:26;1.98;;;1.02;;
36283;SDS011;56085;48.910;9.478;2023-09-19T11:00:54;1.38;;;0.95;;
36283;SDS011;56085;48.910;9.478;2023-09-19T11:03:22;1.33;;;0.80;;
36283;SDS011;56085;48.910;9.478;2023-09-19T11:11:53;1.20;;;0.70;;
36283;SDS011;56085;48.910;9.478;2023-09-19T11:30:32;1.30;;;0.80;;
36283;SDS011;56085;48.910;9.478;2023-09-19T11:33:17;1.55;;;0.95;;
36283;SDS011;56085;48.910;9.478;2023-09-19T11:36:03;3.75;;;1.20;;
36283;SDS011;56085;48.910;9.478;2023-09-19T11:43:45;2.00;;;1.02;;
36283;SDS011;56085;48.910;9.478;2023-09-19T11:46:11;3.50;;;1.17;;
36283;SDS011;56085;48.910;9.478;2023-09-19T11:48:38;2.70;;;1.25;;
36283;SDS011;56085;48.910;9.478;2023-09-19T11:51:12;3.33;;;0.90;;
36283;SDS011;56085;48.910;9.478;2023-09-19T11:53:52;2.17;;;0.80;;
36283;SDS011;56085;48.910;9.478;2023-09-19T11:56:20;1.60;;;0.88;;
36283;SDS011;56085;48.910;9.478;2023-09-19T11:58:49;3.13;;;1.05;;
36283;SDS011;56085;48.910;9.478;2023-09-19T12:01:22;2.25;;;0.98;;
36283;SDS011;56085;48.910;9.478;2023-09-19T12:03:52;2.72;;;0.93;;
36283;SDS011;56085;48.910;9.478;2023-09-19T12:06:19;2.05;;;0.80;;
36283;SDS011;56085;48.910;9.478;2023-09-19T12:08:47;1.92;;;1.00;;
36283;SDS011;56085;48.910;9.478;2023-09-19T12:11:14;2.47;;;0.80;;
36283;SDS011;56085;48.910;9.478;2023-09-19T12:13:41;3.05;;;0.90;;
36283;SDS011;56085;48.910;9.478;2023-09-19T12:16:19;2.38;;;1.10;;
36283;SDS011;56085;48.910;9.478;2023-09-19T12:18:49;3.45;;;1.25;;
36283;SDS011;56085;48.910;9.478;2023-09-19T12:23:57;6.50;;;1.25;;
36283;SDS011;56085;48.910;9.478;2023-09-19T12:26:24;2.35;;;1.17;;
36283;SDS011;56085;48.910;9.478;2023-09-19T12:28:54;3.50;;;1.52;;
36283;SDS011;56085;48.910;9.478;2023-09-19T12:31:19;2.65;;;1.15;;
36283;SDS011;56085;48.910;9.478;2023-09-19T12:33:45;3.47;;;1.30;;
36283;SDS011;56085;48.910;9.478;2023-09-19T12:36:28;2.40;;;1.20;;
36283;SDS011;56085;48.910;9.478;2023-09-19T12:38:55;1.70;;;1.00;;
36283;SDS011;56085;48.910;9.478;2023-09-19T12:41:21;2.75;;;0.80;;
36283;SDS011;56085;48.910;9.478;2023-09-19T12:43:47;1.80;;;0.82;;
36283;SDS011;56085;48.910;9.478;2023-09-19T12:46:13;1.50;;;0.85;;
36283;SDS011;56085;48.910;9.478;2023-09-19T12:48:40;2.50;;;1.00;;
36283;SDS011;56085;48.910;9.478;2023-09-19T12:51:09;2.28;;;0.93;;
36283;SDS011;56085;48.910;9.478;2023-09-19T12:53:41;2.58;;;0.88;;
36283;SDS011;56085;48.910;9.478;2023-09-19T12:56:10;2.92;;;0.95;;
36283;SDS011;56085;48.910;9.478;2023-09-19T12:58:51;1.52;;;0.90;;
36283;SDS011;56085;48.910;9.478;2023-09-19T13:01:22;2.55;;;1.13;;
36283;SDS011;56085;48.910;9.478;2023-09-19T13:04:10;2.30;;;0.80;;
36283;SDS011;56085;48.910;9.478;2023-09-19T13:06:50;2.80;;;0.70;;
36283;SDS011;56085;48.910;9.478;2023-09-19T13:09:17;4.05;;;1.30;;
36283;SDS011;56085;48.910;9.478;2023-09-19T13:11:48;5.38;;;1.10;;
36283;SDS011;56085;48.910;9.478;2023-09-19T13:14:27;1.98;;;0.77;;
36283;SDS011;56085;48.910;9.478;2023-09-19T13:25:19;2.55;;;0.77;;
36283;SDS011;56085;48.910;9.478;2023-09-19T13:27:52;3.40;;;0.95;;
36283;SDS011;56085;48.910;9.478;2023-09-19T13:30:20;2.88;;;0.90;;
36283;SDS011;56085;48.910;9.478;2023-09-19T13:32:46;1.95;;;1.08;;
36283;SDS011;56085;48.910;9.478;2023-09-19T13:35:12;2.20;;;0.93;;
36283;SDS011;56085;48.910;9.478;2023-09-19T13:37:39;2.20;;;1.10;;
36283;SDS011;56085;48.910;9.478;2023-09-19T13:40:08;2.67;;;0.80;;
36283;SDS011;56085;48.910;9.478;2023-09-19T13:42:38;3.47;;;1.17;;
36283;SDS011;56085;48.910;9.478;2023-09-19T13:45:05;1.15;;;0.60;;
36283;SDS011;56085;48.910;9.478;2023-09-19T13:47:31;1.92;;;0.88;;
36283;SDS011;56085;48.910;9.478;2023-09-19T13:49:58;2.15;;;0.93;;
36283;SDS011;56085;48.910;9.478;2023-09-19T13:52:25;1.75;;;1.13;;
36283;SDS011;56085;48.910;9.478;2023-09-19T13:54:53;1.73;;;0.70;;
36283;SDS011;56085;48.910;9.478;2023-09-19T13:57:19;1.83;;;0.98;;
36283;SDS011;56085;48.910;9.478;2023-09-19T13:59:44;1.95;;;1.00;;
36283;SDS011;56085;48.910;9.478;2023-09-19T14:02:09;2.13;;;0.95;;
36283;SDS011;56085;48.910;9.478;2023-09-19T14:04:34;3.33;;;0.90;;
36283;SDS011;56085;48.910;9.478;2023-09-19T14:07:00;1.42;;;0.80;;
36283;SDS011;56085;48.910;9.478;2023-09-19T14:09:26;1.08;;;0.65;;
36283;SDS011;56085;48.910;9.478;2023-09-19T14:14:20;0.93;;;0.73;;
36283;SDS011;56085;48.910;9.478;2023-09-19T14:16:46;1.30;;;0.98;;
36283;SDS011;56085;48.910;9.478;2023-09-19T14:19:12;1.45;;;0.90;;
36283;SDS011;56085;48.910;9.478;2023-09-19T14:21:38;0.95;;;0.80;;
36283;SDS011;56085;48.910;9.478;2023-09-19T14:24:04;1.50;;;0.98;;
36283;SDS011;56085;48.910;9.478;2023-09-19T14:26:34;1.50;;;0.90;;
36283;SDS011;56085;48.910;9.478;2023-09-19T14:28:59;1.73;;;0.90;;
36283;SDS011;56085;48.910;9.478;2023-09-19T14:31:25;1.80;;;0.68;;
36283;SDS011;56085;48.910;9.478;2023-09-19T14:33:53;2.88;;;1.00;;
36283;SDS011;56085;48.910;9.478;2023-09-19T14:36:20;1.77;;;0.70;;
36283;SDS011;56085;48.910;9.478;2023-09-19T14:38:46;1.38;;;0.80;;
36283;SDS011;56085;48.910;9.478;2023-09-19T14:41:12;1.55;;;0.77;;
36283;SDS011;56085;48.910;9.478;2023-09-19T14:43:37;1.45;;;0.90;;
36283;SDS011;56085;48.910;9.478;2023-09-19T14:46:03;1.98;;;0.98;;
36283;SDS011;56085;48.910;9.478;2023-09-19T14:48:35;3.22;;;0.98;;
36283;SDS011;56085;48.910;9.478;2023-09-19T14:51:02;1.95;;;0.82;;
36283;SDS011;56085;48.910;9.478;2023-09-19T14:53:32;1.03;;;0.83;;
36283;SDS011;56085;48.910;9.478;2023-09-19T14:56:00;2.35;;;0.80;;
36283;SDS011;56085;48.910;9.478;2023-09-19T14:58:28;0.75;;;0.73;;
36283;SDS011;56085;48.910;9.478;2023-09-19T15:01:01;1.77;;;0.90;;
36283;SDS011;56085;48.910;9.478;2023-09-19T15:03:28;4.65;;;1.25;;
36283;SDS011;56085;48.910;9.478;2023-09-19T15:05:58;1.55;;;0.95;;
36283;SDS011;56085;48.910;9.478;2023-09-19T15:08:25;4.70;;;1.15;;
36283;SDS011;56085;48.910;9.478;2023-09-19T15:10:50;0.75;;;0.73;;
36283;SDS011;56085;48.910;9.478;2023-09-19T15:13:19;1.77;;;1.00;;
36283;SDS011;56085;48.910;9.478;2023-09-19T15:15:45;1.75;;;0.65;;
36283;SDS011;56085;48.910;9.478;2023-09-19T15:18:13;2.97;;;0.82;;
36283;SDS011;56085;48.910;9.478;2023-09-19T15:20:44;1.63;;;0.97;;
36283;SDS011;56085;48.910;9.478;2023-09-19T15:23:10;1.20;;;0.70;;
36283;SDS011;56085;48.910;9.478;2023-09-19T15:25:36;1.35;;;0.65;;
36283;SDS011;56085;48.910;9.478;2023-09-19T15:28:01;1.90;;;1.20;;
36283;SDS011;56085;48.910;9.478;2023-09-19T15:30:36;3.13;;;1.08;;
36283;SDS011;56085;48.910;9.478;2023-09-19T15:33:03;3.17;;;1.10;;
36283;SDS011;56085;48.910;9.478;2023-09-19T15:35:28;2.45;;;0.80;;
36283;SDS011;56085;48.910;9.478;2023-09-19T15:37:53;5.18;;;1.42;;
36283;SDS011;56085;48.910;9.478;2023-09-19T15:40:21;1.83;;;0.90;;
36283;SDS011;56085;48.910;9.478;2023-09-19T15:42:48;3.30;;;1.05;;
36283;SDS011;56085;48.910;9.478;2023-09-19T15:45:14;1.63;;;0.80;;
36283;SDS011;56085;48.910;9.478;2023-09-19T15:47:41;1.15;;;0.77;;
36283;SDS011;56085;48.910;9.478;2023-09-19T15:50:07;8.18;;;1.38;;
36283;SDS011;56085;48.910;9.478;2023-09-19T15:52:38;1.83;;;0.80;;